createdAt,value
2022-10-22T00:00:07.362Z,17.08
2022-10-22T00:02:34.282Z,17.09
2022-10-22T00:05:01.109Z,17.07
2022-10-22T00:07:27.928Z,17.10
2022-10-22T00:09:54.760Z,17.11
2022-10-22T00:12:22.002Z,17.13
2022-10-22T00:14:49.512Z,17.17
2022-10-22T00:17:16.439Z,17.21
2022-10-22T00:19:43.287Z,17.19
2022-10-22T00:22:11.417Z,17.29
2022-10-22T00:24:39.594Z,17.31
2022-10-22T00:27:08.750Z,17.29
2022-10-22T00:29:35.637Z,17.30
2022-10-22T00:32:03.153Z,17.23
2022-10-22T00:34:29.967Z,17.20
2022-10-22T00:36:56.805Z,17.21
2022-10-22T00:39:25.613Z,17.19
2022-10-22T00:41:55.537Z,17.16
2022-10-22T00:45:02.927Z,17.14
2022-10-22T00:47:37.924Z,17.12
2022-10-22T00:50:09.959Z,17.16
2022-10-22T00:52:37.310Z,17.13
2022-10-22T00:55:05.196Z,17.13
2022-10-22T00:57:32.456Z,17.13
2022-10-22T00:59:59.283Z,17.08
2022-10-22T01:02:26.305Z,17.10
2022-10-22T01:04:53.085Z,17.16
2022-10-22T01:07:22.759Z,17.22
2022-10-22T01:10:24.529Z,17.23
2022-10-22T01:13:24.538Z,17.32
2022-10-22T01:16:22.255Z,17.38
2022-10-22T01:19:08.408Z,17.35
2022-10-22T01:21:44.419Z,17.38
2022-10-22T01:24:31.792Z,17.26
2022-10-22T01:27:43.965Z,17.27
2022-10-22T01:30:14.330Z,17.29
2022-10-22T01:32:50.303Z,17.26
2022-10-22T01:35:23.748Z,17.23
2022-10-22T01:37:57.353Z,17.28
2022-10-22T01:40:25.046Z,17.22
2022-10-22T01:43:07.982Z,17.22
2022-10-22T01:45:52.181Z,17.22
2022-10-22T01:48:51.731Z,17.22
2022-10-22T01:51:29.541Z,17.23
2022-10-22T01:54:14.225Z,17.25
2022-10-22T01:57:02.497Z,17.24
2022-10-22T01:59:54.768Z,17.22
2022-10-22T02:02:29.781Z,17.25
2022-10-22T02:05:08.396Z,17.22
2022-10-22T02:07:47.367Z,17.20
2022-10-22T02:10:15.910Z,17.26
2022-10-22T02:12:45.072Z,17.28
2022-10-22T02:15:14.792Z,17.25
2022-10-22T02:17:45.334Z,17.20
2022-10-22T02:20:33.477Z,17.20
2022-10-22T02:23:00.751Z,17.19
2022-10-22T02:25:37.112Z,17.17
2022-10-22T02:28:16.968Z,17.17
2022-10-22T02:30:51.360Z,17.19
2022-10-22T02:33:45.720Z,17.13
2022-10-22T02:36:14.557Z,17.04
2022-10-22T02:38:42.712Z,17.00
2022-10-22T02:41:09.981Z,17.10
2022-10-22T02:43:48.768Z,17.10
2022-10-22T02:46:15.588Z,17.06
2022-10-22T02:48:42.373Z,17.06
2022-10-22T02:51:09.139Z,17.03
2022-10-22T02:53:35.958Z,17.03
2022-10-22T02:56:03.165Z,17.03
2022-10-22T02:58:29.944Z,17.03
2022-10-22T03:00:56.742Z,17.09
2022-10-22T03:03:23.574Z,17.05
2022-10-22T03:05:53.502Z,17.05
2022-10-22T03:08:20.278Z,16.73
2022-10-22T03:10:47.072Z,16.98
2022-10-22T03:13:14.333Z,17.04
2022-10-22T03:15:41.126Z,17.08
2022-10-22T03:18:08.013Z,17.07
2022-10-22T03:20:35.350Z,17.11
2022-10-22T03:23:03.348Z,17.18
2022-10-22T03:25:34.379Z,17.15
2022-10-22T03:28:05.689Z,17.17
2022-10-22T03:30:32.510Z,17.20
2022-10-22T03:32:59.681Z,17.20
2022-10-22T03:35:26.646Z,17.20
2022-10-22T03:37:54.432Z,17.16
2022-10-22T03:40:21.540Z,17.16
2022-10-22T03:42:48.415Z,17.13
2022-10-22T03:45:15.269Z,17.15
2022-10-22T03:47:42.452Z,17.14
2022-10-22T03:50:10.155Z,17.13
2022-10-22T03:52:39.589Z,17.14
2022-10-22T03:55:07.274Z,17.12
2022-10-22T03:57:34.373Z,17.13
2022-10-22T04:00:01.221Z,17.15
2022-10-22T04:02:28.133Z,17.04
2022-10-22T04:04:54.918Z,17.08
2022-10-22T04:07:21.789Z,16.95
2022-10-22T04:09:48.569Z,17.06
2022-10-22T04:12:15.412Z,17.41
2022-10-22T04:14:42.187Z,16.87
2022-10-22T04:17:08.965Z,16.94
2022-10-22T04:19:35.840Z,16.74
2022-10-22T04:22:02.627Z,16.93
2022-10-22T04:24:31.894Z,16.89
2022-10-22T04:26:59.031Z,16.99
2022-10-22T04:29:27.060Z,16.93
2022-10-22T04:31:53.997Z,16.93
2022-10-22T04:34:20.912Z,16.91
2022-10-22T04:36:47.673Z,16.90
2022-10-22T04:39:15.194Z,16.82
2022-10-22T04:41:41.997Z,16.75
2022-10-22T04:44:12.271Z,16.72
2022-10-22T04:46:42.925Z,16.70
2022-10-22T04:49:09.727Z,16.58
2022-10-22T04:51:36.531Z,16.41
2022-10-22T04:54:04.592Z,16.33
2022-10-22T04:56:32.164Z,16.39
2022-10-22T04:59:06.117Z,16.22
2022-10-22T05:01:43.179Z,16.35
2022-10-22T05:04:16.692Z,16.44
2022-10-22T05:06:44.305Z,16.33
2022-10-22T05:09:19.769Z,16.20
2022-10-22T05:11:50.044Z,16.25
2022-10-22T05:14:23.589Z,15.95
2022-10-22T05:16:51.721Z,16.07
2022-10-22T05:19:30.825Z,16.14
2022-10-22T05:22:01.605Z,16.15
2022-10-22T05:24:30.090Z,16.11
2022-10-22T05:26:58.918Z,16.11
2022-10-22T05:29:26.612Z,16.04
2022-10-22T05:31:53.673Z,16.04
2022-10-22T05:34:20.472Z,16.15
2022-10-22T05:36:47.282Z,16.14
2022-10-22T05:39:14.099Z,16.07
2022-10-22T05:41:41.185Z,16.07
2022-10-22T05:44:07.973Z,15.94
2022-10-22T05:46:36.303Z,16.07
2022-10-22T05:49:06.822Z,16.06
2022-10-22T05:51:36.474Z,16.05
2022-10-22T05:54:06.411Z,16.00
2022-10-22T05:56:34.988Z,16.00
2022-10-22T06:01:37.773Z,15.97
2022-10-22T06:04:10.721Z,15.98
2022-10-22T06:06:43.214Z,15.98
2022-10-22T06:09:26.417Z,16.00
2022-10-22T06:11:53.465Z,15.94
2022-10-22T06:14:21.377Z,15.99
2022-10-22T06:16:49.058Z,15.99
2022-10-22T06:19:18.200Z,16.01
2022-10-22T06:21:45.711Z,16.06
2022-10-22T06:24:12.977Z,16.08
2022-10-22T06:26:41.016Z,16.08
2022-10-22T06:29:08.477Z,16.09
2022-10-22T06:31:39.258Z,16.07
2022-10-22T06:34:11.139Z,16.04
2022-10-22T06:36:38.507Z,16.02
2022-10-22T06:39:05.861Z,16.04
2022-10-22T06:41:32.637Z,16.07
2022-10-22T06:44:00.008Z,16.06
2022-10-22T06:46:27.278Z,16.06
2022-10-22T06:48:57.895Z,16.00
2022-10-22T06:51:26.177Z,16.01
2022-10-22T06:53:55.032Z,16.03
2022-10-22T06:56:26.425Z,15.96
2022-10-22T06:58:56.082Z,15.97
2022-10-22T07:01:27.872Z,15.99
2022-10-22T07:03:54.836Z,15.98
2022-10-22T07:06:23.968Z,16.06
2022-10-22T07:08:51.364Z,16.07
2022-10-22T07:11:23.561Z,16.11
2022-10-22T07:13:50.619Z,16.14
2022-10-22T07:16:18.474Z,16.19
2022-10-22T07:18:46.345Z,16.24
2022-10-22T07:21:16.147Z,16.32
2022-10-22T07:23:43.570Z,16.37
2022-10-22T07:26:14.582Z,16.40
2022-10-22T07:28:42.164Z,16.40
2022-10-22T07:31:11.677Z,16.44
2022-10-22T07:33:39.249Z,16.50
2022-10-22T07:36:09.248Z,16.55
2022-10-22T07:38:36.817Z,16.63
2022-10-22T07:41:04.148Z,16.69
2022-10-22T07:43:31.121Z,16.79
2022-10-22T07:45:59.524Z,16.77
2022-10-22T07:48:26.475Z,16.86
2022-10-22T07:50:53.273Z,16.87
2022-10-22T07:53:21.309Z,16.93
2022-10-22T07:55:50.340Z,17.03
2022-10-22T07:58:18.409Z,17.05
2022-10-22T08:00:45.654Z,17.18
2022-10-22T08:03:14.142Z,17.05
2022-10-22T08:05:43.643Z,17.27
2022-10-22T08:08:13.738Z,17.40
2022-10-22T08:10:41.005Z,17.21
2022-10-22T08:13:08.409Z,17.05
2022-10-22T08:15:36.112Z,17.24
2022-10-22T08:18:02.990Z,17.36
2022-10-22T08:20:29.817Z,17.51
2022-10-22T08:22:56.651Z,17.52
2022-10-22T08:25:23.576Z,17.56
2022-10-22T08:27:50.392Z,17.58
2022-10-22T08:30:17.592Z,17.39
2022-10-22T08:32:44.466Z,17.45
2022-10-22T08:35:14.177Z,17.57
2022-10-22T08:37:44.007Z,17.49
2022-10-22T08:40:23.930Z,17.56
2022-10-22T08:43:37.134Z,17.60
2022-10-22T08:46:16.765Z,17.55
2022-10-22T08:48:52.269Z,17.73
2022-10-22T08:51:26.608Z,17.80
2022-10-22T08:54:16.938Z,17.85
2022-10-22T08:56:49.849Z,17.85
2022-10-22T08:59:23.897Z,18.01
2022-10-22T09:01:53.973Z,18.11
2022-10-22T09:04:37.836Z,18.16
2022-10-22T09:07:04.789Z,18.34
2022-10-22T09:09:42.850Z,18.41
2022-10-22T09:12:19.326Z,18.43
2022-10-22T09:14:47.305Z,18.36
2022-10-22T09:17:33.761Z,18.26
2022-10-22T09:20:16.689Z,18.47
2022-10-22T09:23:15.646Z,18.60
2022-10-22T09:25:43.518Z,18.29
2022-10-22T09:28:10.417Z,18.59
2022-10-22T09:30:39.217Z,18.60
2022-10-22T09:33:28.023Z,18.65
2022-10-22T09:36:06.882Z,18.64
2022-10-22T09:38:40.580Z,18.29
2022-10-22T09:41:09.040Z,18.29
2022-10-22T09:43:36.396Z,18.84
2022-10-22T09:46:14.090Z,18.90
2022-10-22T09:49:12.067Z,19.23
2022-10-22T09:52:00.071Z,19.36
2022-10-22T09:54:42.523Z,19.68
2022-10-22T09:57:22.374Z,18.95
2022-10-22T09:59:51.368Z,19.31
2022-10-22T10:02:37.426Z,19.40
2022-10-22T10:05:06.572Z,19.39
2022-10-22T10:07:35.752Z,19.57
2022-10-22T10:10:17.052Z,19.23
2022-10-22T10:12:55.819Z,19.30
2022-10-22T10:15:47.824Z,19.31
2022-10-22T10:18:43.129Z,19.15
2022-10-22T10:21:32.057Z,19.30
2022-10-22T10:24:20.200Z,18.97
2022-10-22T10:26:59.025Z,18.91
2022-10-22T10:29:59.180Z,19.01
2022-10-22T10:32:53.884Z,19.16
2022-10-22T10:35:27.558Z,19.16
2022-10-22T10:38:42.476Z,18.98
2022-10-22T10:41:29.108Z,18.87
2022-10-22T10:44:28.521Z,18.76
2022-10-22T10:47:25.625Z,18.87
2022-10-22T10:50:01.621Z,19.00
2022-10-22T10:53:02.483Z,19.08
2022-10-22T10:55:41.309Z,19.24
2022-10-22T10:58:46.186Z,19.29
2022-10-22T11:01:58.114Z,19.72
2022-10-22T11:04:55.244Z,19.90
2022-10-22T11:07:34.746Z,20.07
2022-10-22T11:10:32.406Z,20.33
2022-10-22T11:13:29.555Z,20.53
2022-10-22T11:16:03.633Z,20.85
2022-10-22T11:18:40.743Z,21.26
2022-10-22T11:21:11.409Z,21.70
2022-10-22T11:24:11.213Z,21.54
2022-10-22T11:26:49.061Z,21.69
2022-10-22T11:29:22.956Z,21.26
2022-10-22T11:31:52.085Z,21.52
2022-10-22T11:34:43.713Z,21.51
2022-10-22T11:37:13.670Z,21.50
2022-10-22T11:39:54.136Z,21.55
2022-10-22T11:42:39.091Z,21.55
2022-10-22T11:45:14.099Z,21.46
2022-10-22T11:48:16.543Z,21.07
2022-10-22T11:51:02.363Z,20.84
2022-10-22T11:53:37.234Z,20.54
2022-10-22T11:56:06.971Z,20.41
2022-10-22T11:58:47.701Z,20.45
2022-10-22T12:01:29.723Z,20.46
2022-10-22T12:03:59.545Z,20.42
2022-10-22T12:06:28.770Z,21.11
2022-10-22T12:09:04.782Z,21.57
2022-10-22T12:11:47.662Z,21.90
2022-10-22T12:14:26.584Z,22.52
2022-10-22T12:16:57.968Z,24.04
2022-10-22T12:19:44.959Z,25.59
2022-10-22T12:22:24.311Z,25.10
2022-10-22T12:24:55.457Z,27.67
2022-10-22T12:27:26.054Z,29.32
2022-10-22T12:29:59.526Z,30.31
2022-10-22T12:32:39.784Z,31.24
2022-10-22T12:35:15.246Z,32.51
2022-10-22T12:37:42.489Z,34.15
2022-10-22T12:40:28.707Z,32.24
2022-10-22T12:43:03.035Z,34.86
2022-10-22T12:45:33.465Z,30.44
2022-10-22T12:48:07.210Z,31.36
2022-10-22T12:50:41.050Z,30.49
2022-10-22T12:53:35.791Z,29.58
2022-10-22T12:56:06.685Z,29.90
2022-10-22T12:58:45.950Z,30.60
2022-10-22T13:01:16.354Z,29.60
2022-10-22T13:03:49.792Z,28.13
2022-10-22T13:06:20.472Z,26.77
2022-10-22T13:09:00.163Z,26.14
2022-10-22T13:11:53.432Z,29.26
2022-10-22T13:14:34.413Z,29.79
2022-10-22T13:17:13.335Z,29.75
2022-10-22T13:19:49.755Z,30.66
2022-10-22T13:22:36.631Z,29.53
2022-10-22T13:25:19.426Z,31.34
2022-10-22T13:27:50.318Z,31.87
2022-10-22T13:30:34.067Z,32.24
2022-10-22T13:33:23.359Z,30.96
2022-10-22T13:35:50.203Z,31.45
2022-10-22T13:38:20.289Z,33.38
2022-10-22T13:40:47.478Z,33.06
2022-10-22T13:43:15.050Z,33.30
2022-10-22T13:45:42.132Z,34.51
2022-10-22T13:48:15.463Z,34.33
2022-10-22T13:50:42.578Z,34.91
2022-10-22T13:53:23.390Z,33.82
2022-10-22T13:55:50.481Z,32.45
2022-10-22T13:58:21.062Z,30.70
2022-10-22T14:00:52.302Z,28.78
2022-10-22T14:03:21.889Z,29.91
2022-10-22T14:05:49.526Z,31.93
2022-10-22T14:08:20.213Z,31.06
2022-10-22T14:10:47.458Z,30.22
2022-10-22T14:13:16.858Z,31.63
2022-10-22T14:15:46.965Z,32.88
2022-10-22T14:18:25.337Z,32.78
2022-10-22T14:20:58.473Z,30.65
2022-10-22T14:23:30.167Z,28.62
2022-10-22T14:25:58.821Z,27.47
2022-10-22T14:28:31.374Z,27.22
2022-10-22T14:30:58.664Z,28.76
2022-10-22T14:33:32.525Z,30.64
2022-10-22T14:36:02.979Z,30.87
2022-10-22T14:38:29.899Z,32.35
2022-10-22T14:40:57.940Z,33.46
2022-10-22T14:43:29.276Z,34.30
2022-10-22T14:45:56.137Z,34.24
2022-10-22T14:48:23.443Z,34.28
2022-10-22T14:50:50.711Z,34.37
2022-10-22T14:53:17.695Z,33.08
2022-10-22T14:55:48.980Z,31.79
2022-10-22T14:58:16.023Z,30.42
2022-10-22T15:00:43.571Z,29.11
2022-10-22T15:03:11.694Z,27.76
2022-10-22T15:05:45.366Z,26.50
2022-10-22T15:08:14.317Z,25.61
2022-10-22T15:10:41.689Z,24.75
2022-10-22T15:13:08.722Z,23.72
2022-10-22T15:15:39.490Z,23.29
2022-10-22T15:18:06.940Z,22.69
2022-10-22T15:20:33.814Z,22.21
2022-10-22T15:23:00.751Z,21.93
2022-10-22T15:25:28.593Z,21.65
2022-10-22T15:28:00.575Z,21.44
2022-10-22T15:30:31.962Z,21.26
2022-10-22T15:32:58.765Z,21.06
2022-10-22T15:35:28.532Z,20.86
2022-10-22T15:37:56.461Z,20.76
2022-10-22T15:40:23.225Z,20.63
2022-10-22T15:42:50.021Z,20.48
2022-10-22T15:45:16.967Z,20.37
2022-10-22T15:47:49.804Z,20.26
2022-10-22T15:50:17.207Z,20.16
2022-10-22T15:52:44.027Z,19.90
2022-10-22T15:57:43.289Z,19.70
2022-10-22T16:00:11.241Z,19.57
2022-10-22T16:02:38.028Z,19.45
2022-10-22T16:05:05.304Z,19.31
2022-10-22T16:07:32.082Z,19.14
2022-10-22T16:10:02.522Z,19.07
2022-10-22T16:12:29.431Z,18.91
2022-10-22T16:14:56.217Z,18.73
2022-10-22T16:17:23.456Z,18.64
2022-10-22T16:19:50.261Z,18.54
2022-10-22T16:22:17.088Z,18.39
2022-10-22T16:24:43.961Z,18.29
2022-10-22T16:27:10.893Z,18.11
2022-10-22T16:29:41.968Z,18.01
2022-10-22T16:32:08.926Z,17.92
2022-10-22T16:34:35.687Z,17.79
2022-10-22T16:37:02.568Z,17.69
2022-10-22T16:39:29.542Z,17.65
2022-10-22T16:41:56.373Z,17.49
2022-10-22T16:44:23.716Z,17.29
2022-10-22T16:46:50.508Z,17.16
2022-10-22T16:49:17.301Z,16.90
2022-10-22T16:51:44.105Z,16.82
2022-10-22T16:54:14.017Z,16.88
2022-10-22T16:56:41.073Z,16.78
2022-10-22T16:59:07.988Z,16.74
2022-10-22T17:01:38.125Z,16.71
2022-10-22T17:04:07.338Z,16.58
2022-10-22T17:06:34.308Z,16.59
2022-10-22T17:09:01.174Z,16.62
2022-10-22T17:11:30.179Z,16.64
2022-10-22T17:13:57.092Z,16.66
2022-10-22T17:16:24.934Z,16.67
2022-10-22T17:18:54.138Z,16.65
2022-10-22T17:21:22.381Z,16.58
2022-10-22T17:23:52.144Z,16.54
2022-10-22T17:26:22.745Z,16.44
2022-10-22T17:28:50.059Z,16.42
2022-10-22T17:31:24.416Z,16.34
2022-10-22T17:33:53.889Z,16.23
2022-10-22T17:36:22.941Z,16.26
2022-10-22T17:38:55.592Z,16.24
2022-10-22T17:41:26.869Z,16.20
2022-10-22T17:43:55.719Z,16.11
2022-10-22T17:46:28.733Z,15.98
2022-10-22T17:49:01.748Z,15.87
2022-10-22T17:51:30.487Z,15.83
2022-10-22T17:53:57.756Z,15.83
2022-10-22T17:56:27.964Z,15.82
2022-10-22T17:58:56.111Z,15.75
2022-10-22T18:01:29.466Z,15.73
2022-10-22T18:04:05.468Z,15.67
2022-10-22T18:06:33.070Z,15.66
2022-10-22T18:09:00.117Z,15.73
2022-10-22T18:11:28.522Z,15.72
2022-10-22T18:13:57.098Z,15.69
2022-10-22T18:16:25.458Z,15.68
2022-10-22T18:18:56.002Z,15.58
2022-10-22T18:21:26.843Z,15.51
2022-10-22T18:23:54.677Z,15.43
2022-10-22T18:26:25.823Z,15.34
2022-10-22T18:28:54.431Z,15.29
2022-10-22T18:31:27.817Z,15.28
2022-10-22T18:33:55.276Z,15.24
2022-10-22T18:36:25.433Z,15.22
2022-10-22T18:38:58.540Z,15.17
2022-10-22T18:41:27.212Z,15.10
2022-10-22T18:43:57.290Z,15.17
2022-10-22T18:46:25.380Z,15.26
2022-10-22T18:48:57.718Z,15.23
2022-10-22T18:51:30.483Z,15.13
2022-10-22T18:54:11.359Z,15.05
2022-10-22T18:56:44.809Z,15.07
2022-10-22T18:59:30.452Z,15.10
2022-10-22T19:02:00.468Z,15.02
2022-10-22T19:04:33.062Z,15.07
2022-10-22T19:06:59.939Z,15.13
2022-10-22T19:09:26.853Z,15.16
2022-10-22T19:11:53.991Z,15.18
2022-10-22T19:14:22.075Z,15.22
2022-10-22T19:16:49.918Z,15.24
2022-10-22T19:19:21.726Z,15.30
2022-10-22T19:21:49.422Z,15.24
2022-10-22T19:24:19.184Z,15.28
2022-10-22T19:26:47.826Z,15.31
2022-10-22T19:29:18.268Z,15.21
2022-10-22T19:31:46.323Z,15.24
2022-10-22T19:34:14.179Z,15.27
2022-10-22T19:36:41.194Z,15.24
2022-10-22T19:39:09.031Z,15.13
2022-10-22T19:41:35.976Z,15.02
2022-10-22T19:44:03.215Z,15.00
2022-10-22T19:46:32.886Z,14.97
2022-10-22T19:49:02.556Z,15.01
2022-10-22T19:51:31.736Z,14.98
2022-10-22T19:54:01.522Z,15.03
2022-10-22T19:56:29.769Z,15.07
2022-10-22T19:58:57.457Z,15.12
2022-10-22T20:01:24.928Z,15.04
2022-10-22T20:03:52.708Z,14.93
2022-10-22T20:06:20.105Z,14.91
2022-10-22T20:08:47.404Z,14.92
2022-10-22T20:11:24.834Z,14.81
2022-10-22T20:13:52.623Z,14.71
2022-10-22T20:16:24.250Z,14.60
2022-10-22T20:18:52.248Z,14.48
2022-10-22T20:21:20.911Z,14.48
2022-10-22T20:23:51.736Z,14.48
2022-10-22T20:26:19.720Z,14.40
2022-10-22T20:28:48.107Z,14.31
2022-10-22T20:31:19.758Z,14.35
2022-10-22T20:33:47.868Z,14.41
2022-10-22T20:36:20.393Z,14.57
2022-10-22T20:38:48.217Z,14.66
2022-10-22T20:41:24.493Z,14.75
2022-10-22T20:43:52.273Z,14.76
2022-10-22T20:46:29.660Z,14.72
2022-10-22T20:49:07.492Z,14.67
2022-10-22T20:51:36.780Z,14.61
2022-10-22T20:54:05.106Z,14.55
2022-10-22T20:56:32.327Z,14.47
2022-10-22T20:59:07.918Z,14.40
2022-10-22T21:01:46.814Z,14.28
2022-10-22T21:04:13.771Z,14.09
2022-10-22T21:06:42.751Z,14.03
2022-10-22T21:09:13.052Z,14.03
2022-10-22T21:11:41.873Z,14.02
2022-10-22T21:14:11.125Z,14.04
2022-10-22T21:16:42.320Z,14.14
2022-10-22T21:19:09.136Z,14.25
2022-10-22T21:21:35.903Z,14.35
2022-10-22T21:24:02.693Z,14.49
2022-10-22T21:26:29.741Z,14.54
2022-10-22T21:28:56.504Z,14.57
2022-10-22T21:31:26.198Z,14.48
2022-10-22T21:33:54.392Z,14.39
2022-10-22T21:36:23.565Z,14.28
2022-10-22T21:38:54.456Z,14.25
2022-10-22T21:41:24.261Z,14.13
2022-10-22T21:43:52.209Z,14.04
2022-10-22T21:46:22.440Z,13.92
2022-10-22T21:49:02.302Z,13.83
2022-10-22T21:51:32.322Z,13.69
2022-10-22T21:53:59.416Z,13.74
2022-10-22T21:56:29.865Z,13.84
2022-10-22T21:58:56.650Z,13.90
2022-10-22T22:01:23.914Z,13.97
2022-10-22T22:03:52.390Z,14.02
2022-10-22T22:06:22.985Z,14.00
2022-10-22T22:08:52.522Z,13.90
2022-10-22T22:11:24.602Z,13.95
2022-10-22T22:13:53.337Z,14.05
2022-10-22T22:16:28.091Z,14.17
2022-10-22T22:19:00.753Z,14.19
2022-10-22T22:21:28.453Z,14.17
2022-10-22T22:23:56.617Z,14.18
2022-10-22T22:26:29.674Z,14.19
2022-10-22T22:28:58.525Z,14.21
2022-10-22T22:31:32.122Z,14.22
2022-10-22T22:34:04.125Z,14.23
2022-10-22T22:36:37.260Z,14.21
2022-10-22T22:39:06.572Z,14.26
2022-10-22T22:41:34.274Z,14.28
2022-10-22T22:44:01.457Z,14.31
2022-10-22T22:46:28.338Z,14.31
2022-10-22T22:48:55.564Z,14.32
2022-10-22T22:51:22.376Z,14.28
2022-10-22T22:53:49.261Z,14.29
2022-10-22T22:56:27.609Z,14.30
2022-10-22T22:58:55.178Z,14.30
2022-10-22T23:01:29.060Z,14.24
2022-10-22T23:04:08.759Z,14.27
2022-10-22T23:06:37.657Z,14.22
2022-10-22T23:09:07.643Z,14.17
2022-10-22T23:11:34.763Z,14.05
2022-10-22T23:14:04.995Z,13.98
2022-10-22T23:16:36.703Z,13.89
2022-10-22T23:19:04.766Z,13.90
2022-10-22T23:21:35.916Z,13.95
2022-10-22T23:24:08.058Z,13.94
2022-10-22T23:26:38.776Z,13.88
2022-10-22T23:29:15.746Z,13.79
2022-10-22T23:31:44.115Z,13.67
2022-10-22T23:34:15.923Z,13.55
2022-10-22T23:36:43.176Z,13.47
2022-10-22T23:39:13.599Z,13.45
2022-10-22T23:41:40.544Z,13.46
2022-10-22T23:44:08.875Z,13.51
2022-10-22T23:46:35.920Z,13.53
2022-10-22T23:49:02.724Z,13.55
2022-10-22T23:51:29.518Z,13.64
2022-10-22T23:54:03.064Z,13.52
2022-10-22T23:56:30.265Z,13.47
2022-10-22T23:58:58.156Z,13.44
